Main page
METAR-TAF:

METAR-TAF

Airports :

Sudbury Airport

Sudbury, Ontario, Canada

latitude: 46-37N, longitude: 080-48W, elevation: 348 m

Current weather observation

The report was made 42 minutes ago, at 17:00 UTC
Wind 10 kt from the Northeast
Temperature 21°C
Humidity 64%
Pressure 1028 hPa
Visibility: 32.2 km
Few clouds at a height of 3000 ft
Scattered clouds at a height of 8200 ft
Broken clouds at a height of 22000 ft

METAR: CYSB 201700Z 04010KT 20SM FEW030 SCT082 BKN220 21/14 A3037 RMK SC1AC2CS4 SLP286 DENSITY ALT 1700FT

Time: 13:42 (17:42 UTC)

Forecast

The report was made 4 hours and 2 minutes ago, at 13:40 UTC
Forecast valid from 20 at 14 UTC to 21 at 02 UTC
Wind 8 kt from the North/Northeast
Visibility: 10 km
Broken clouds at a height of 5000 ft
Overcast at a height of 12000 ft
light rain showers
Becoming
from 20 at 16 UTC to 20 at 18 UTC
Visibility: 10 km
Clear sky

TAF: CYSB 201340Z 2014/2102 03008KT P6SM -SHRA BKN050 OVC120 BECMG 2016/2018 P6SM NSW SKC RMK NXT FCST BY 202000Z

Weather observations and forecasts of more than 4000 airports (METAR and TAF reports).

The available stations are represented by yellow and red dots on the map.

Hover mouse over dot to see the name of the station.

Then click to see weather observations and forecasts.

To change the map : click on the green buttons with a black cross to zoom in, on the green button with a dash to zoom out, or on the green arrows for adjacent maps.


METAR-TAF: